createdAt,value
2024-04-23T00:09:51.603Z,5.5009
2024-04-23T00:20:00.886Z,5.4875
2024-04-23T00:30:09.585Z,5.4607
2024-04-23T00:40:18.434Z,5.4395
2024-04-23T00:50:27.255Z,5.4200
2024-04-23T01:00:36.105Z,5.3950
2024-04-23T01:10:44.633Z,5.3757
2024-04-23T01:20:53.372Z,5.3491
2024-04-23T01:31:02.441Z,5.3255
2024-04-23T01:41:11.596Z,5.3064
2024-04-23T01:51:20.233Z,5.2866
2024-04-23T02:01:29.227Z,5.2732
2024-04-23T02:11:37.874Z,5.2595
2024-04-23T02:21:46.527Z,5.2493
2024-04-23T02:31:57.408Z,5.2391
2024-04-23T02:42:06.495Z,5.2305
2024-04-23T02:52:15.451Z,5.2259
2024-04-23T03:02:24.359Z,5.2189
2024-04-23T03:12:33.591Z,5.2093
2024-04-23T03:22:42.504Z,5.2002
2024-04-23T03:32:51.197Z,5.1955
2024-04-23T03:42:59.524Z,5.1777
2024-04-23T03:53:08.089Z,5.1684
2024-04-23T04:03:16.719Z,5.1534
2024-04-23T04:13:25.190Z,5.1482
2024-04-23T04:23:33.735Z,5.1332
2024-04-23T04:33:42.283Z,5.1250
2024-04-23T04:43:51.000Z,5.1109
2024-04-23T04:54:00.040Z,5.1123
2024-04-23T05:04:08.721Z,5.1027
2024-04-23T05:14:18.182Z,5.0939
2024-04-23T05:24:26.824Z,5.0889
2024-04-23T05:34:35.718Z,5.0848
2024-04-23T05:44:44.385Z,5.0923
2024-04-23T05:54:52.912Z,5.0995
2024-04-23T06:05:02.766Z,5.1148
2024-04-23T06:15:11.644Z,5.1257
2024-04-23T06:25:25.707Z,5.1334
2024-04-23T06:35:34.452Z,5.1461
2024-04-23T06:45:48.359Z,5.1498
2024-04-23T06:55:57.641Z,5.1759
2024-04-23T07:06:06.751Z,5.1870
2024-04-23T07:16:15.503Z,5.2132
2024-04-23T07:26:24.744Z,5.2252
2024-04-23T07:36:33.176Z,5.2441
2024-04-23T07:46:43.266Z,5.2539
2024-04-23T07:56:51.922Z,5.2764
2024-04-23T08:07:00.512Z,5.2968
2024-04-23T08:17:10.043Z,5.3314
2024-04-23T08:27:18.631Z,5.3789
2024-04-23T08:37:27.317Z,5.4450
2024-04-23T08:47:35.809Z,5.5200
2024-04-23T08:57:44.418Z,5.6027
2024-04-23T09:07:53.335Z,5.6673
2024-04-23T09:18:01.918Z,5.7405
2024-04-23T09:28:10.978Z,5.8177
2024-04-23T09:38:20.514Z,5.8886
2024-04-23T09:48:29.231Z,5.9605
2024-04-23T09:58:38.087Z,6.0289
2024-04-23T10:08:54.067Z,6.1016
2024-04-23T10:19:02.921Z,6.1700
2024-04-23T10:29:11.793Z,6.2466
2024-04-23T10:39:20.506Z,6.3505
2024-04-23T10:49:29.098Z,6.5025
2024-04-23T10:59:37.754Z,6.6748
2024-04-23T11:09:46.181Z,6.8211
2024-04-23T11:19:54.925Z,6.9807
2024-04-23T11:30:03.596Z,7.1684
2024-04-23T11:40:12.083Z,7.3727
2024-04-23T11:50:20.631Z,7.5616
2024-04-23T12:00:29.265Z,7.7361
2024-04-23T12:10:37.945Z,7.8805
2024-04-23T12:20:46.441Z,7.9823
2024-04-23T12:30:55.131Z,8.0475
2024-04-23T12:41:03.906Z,8.0993
2024-04-23T12:51:12.693Z,8.1282
2024-04-23T13:01:26.293Z,8.1414
2024-04-23T13:11:36.142Z,8.1207
2024-04-23T13:21:51.043Z,8.0693
2024-04-23T13:31:59.677Z,8.0011
2024-04-23T13:42:08.339Z,7.9252
2024-04-23T13:52:17.145Z,7.8516
2024-04-23T14:02:25.941Z,7.7852
2024-04-23T14:12:34.601Z,7.7450
2024-04-23T14:22:44.127Z,7.7198
2024-04-23T14:32:53.019Z,7.7164
2024-04-23T14:43:03.390Z,7.7152
2024-04-23T14:53:12.176Z,7.7205
2024-04-23T15:03:20.809Z,7.6995
2024-04-23T15:13:29.471Z,7.6730
2024-04-23T15:23:38.360Z,7.6457
2024-04-23T15:33:56.442Z,7.6079
2024-04-23T15:44:14.392Z,7.5591
2024-04-23T15:54:23.946Z,7.5159
2024-04-23T16:04:45.933Z,7.4610
2024-04-23T16:15:01.567Z,7.4193
2024-04-23T16:25:14.966Z,7.3781
2024-04-23T16:36:16.971Z,7.3360
2024-04-23T16:46:28.993Z,7.3024
2024-04-23T17:40:36.583Z,7.0936
2024-04-23T17:50:33.363Z,7.0453
2024-04-23T18:33:24.723Z,6.8915
2024-04-23T18:43:08.430Z,6.8567
2024-04-23T18:53:22.152Z,6.8330
2024-04-23T19:03:32.271Z,6.8073
2024-04-23T19:14:27.620Z,6.7700
2024-04-23T19:24:08.658Z,6.7436
2024-04-23T19:34:17.222Z,6.7184
2024-04-23T19:44:26.174Z,6.6884
2024-04-23T19:54:38.555Z,6.6697
2024-04-23T20:04:55.086Z,6.6390
2024-04-23T20:15:02.691Z,6.6120
2024-04-23T20:25:11.805Z,6.5880
2024-04-23T20:35:20.698Z,6.5705
2024-04-23T20:45:29.427Z,6.5452
2024-04-23T20:55:38.259Z,6.5170
2024-04-23T21:05:53.339Z,6.4834
2024-04-23T21:16:10.574Z,6.4600
2024-04-23T21:26:24.967Z,6.4291
2024-04-23T21:36:34.064Z,6.3964
2024-04-23T21:46:42.840Z,6.3705
2024-04-23T21:56:52.125Z,6.3461
2024-04-23T22:07:01.769Z,6.3195
2024-04-23T22:17:10.732Z,6.2930
2024-04-23T22:27:19.610Z,6.2645
2024-04-23T22:37:28.268Z,6.2391
2024-04-23T22:47:37.290Z,6.2134
2024-04-23T22:57:47.923Z,6.1907
2024-04-23T23:07:57.900Z,6.1630
2024-04-23T23:18:06.670Z,6.1395
2024-04-23T23:28:15.929Z,6.1184
2024-04-23T23:38:24.741Z,6.0934
2024-04-23T23:48:33.928Z,6.0698
2024-04-23T23:58:44.102Z,6.0552
